Time;durP1;ratioP1;P1;durP2;ratioP2;P2;SDS_P1;SDS_P2;PMS_P1;PMS_P2;Temp;Humidity;BMP_temperature;BMP_pressure;BME280_temperature;BME280_humidity;BME280_pressure;Samples;Min_cycle;Max_cycle;Signal;HPM_P1;HPM_P2
2022/08/17 00:01:29;;;;;;;0.00;0.00;;;20.10;99.90;;;;;;4968626;28;20505;-85
2022/08/17 00:04:18;;;;;;;0.00;0.00;;;20.00;99.90;;;;;;4970520;28;20058;-86
2022/08/17 00:06:45;;;;;;;0.00;0.00;;;19.90;99.90;;;;;;4972549;28;20045;-86
2022/08/17 00:09:15;;;;;;;;;;;19.90;99.90;;;;;;4971695;28;20050;-86
2022/08/17 00:11:44;;;;;;;0.00;0.00;;;;;;;;;;4974166;28;19921;-86
2022/08/17 00:14:31;;;;;;;0.00;0.00;;;19.80;99.90;;;;;;4972268;28;20061;-85
2022/08/17 00:16:58;;;;;;;0.00;0.00;;;19.80;99.90;;;;;;4970816;28;20050;-84
2022/08/17 00:19:26;;;;;;;0.00;0.00;;;19.70;99.90;;;;;;4972138;28;20054;-85
2022/08/17 00:21:56;;;;;;;0.00;0.00;;;19.70;99.90;;;;;;4969478;28;20924;-83
2022/08/17 00:24:43;;;;;;;0.00;0.00;;;19.70;99.90;;;;;;4969271;28;20046;-86
2022/08/17 00:27:10;;;;;;;0.00;0.00;;;19.60;99.90;;;;;;4972549;28;20055;-86
2022/08/17 00:29:37;;;;;;;0.00;0.00;;;19.60;99.90;;;;;;4970589;28;20506;-86
2022/08/17 00:32:04;;;;;;;0.00;0.00;;;19.60;99.90;;;;;;4971693;28;20450;-87
2022/08/17 00:34:52;;;;;;;0.00;0.00;;;19.50;99.90;;;;;;4969067;28;20130;-86
2022/08/17 00:37:19;;;;;;;0.00;0.00;;;19.40;99.90;;;;;;4971545;28;20055;-85
2022/08/17 00:39:46;;;;;;;0.00;0.00;;;19.50;99.90;;;;;;4972320;28;20117;-84
2022/08/17 00:42:14;;;;;;;0.00;0.00;;;19.60;99.90;;;;;;4987973;28;20130;-87
2022/08/17 00:44:41;;;;;;;0.00;0.00;;;19.50;99.90;;;;;;4969196;28;20051;-84
2022/08/17 00:47:08;;;;;;;0.00;0.00;;;19.50;99.90;;;;;;4987216;28;20058;-84
2022/08/17 00:49:35;;;;;;;0.00;0.00;;;19.60;99.90;;;;;;4973462;28;20518;-85
2022/08/17 00:52:14;;;;;;;0.00;0.00;;;19.60;99.90;;;;;;4970313;28;20403;-85
2022/08/17 00:54:45;;;;;;;0.00;0.00;;;19.50;99.90;;;;;;4973298;28;20047;-87
2022/08/17 00:57:16;;;;;;;0.00;0.00;;;19.50;99.90;;;;;;4969344;28;20072;-84
2022/08/17 00:59:48;;;;;;;0.00;0.00;;;19.50;99.90;;;;;;4972736;28;20086;-85
2022/08/17 01:02:30;;;;;;;0.00;0.00;;;19.60;99.90;;;;;;4970080;28;20507;-85
2022/08/17 01:05:11;;;;;;;0.00;0.00;;;19.60;99.90;;;;;;4970093;28;20496;-84
2022/08/17 01:07:40;;;;;;;0.00;0.00;;;19.60;99.90;;;;;;4986325;28;20047;-85
2022/08/17 01:10:10;;;;;;;0.00;0.00;;;19.60;99.90;;;;;;4968765;28;20498;-83
2022/08/17 01:13:01;;;;;;;0.00;0.00;;;19.60;99.90;;;;;;4971066;28;20054;-85
2022/08/17 01:15:29;;;;;;;0.00;0.00;;;19.50;99.90;;;;;;4971459;28;20184;-85
2022/08/17 01:17:56;;;;;;;0.00;0.00;;;19.50;99.90;;;;;;4971146;28;20129;-86
2022/08/17 01:20:23;;;;;;;0.00;0.00;;;19.40;99.90;;;;;;4972552;28;20467;-86
2022/08/17 01:22:52;;;;;;;0.00;0.00;;;19.50;99.90;;;;;;4968700;28;20043;-84
2022/08/17 01:25:20;;;;;;;0.00;0.00;;;19.40;99.90;;;;;;4973044;28;20059;-89
2022/08/17 01:27:48;;;;;;;0.00;0.00;;;19.40;99.90;;;;;;4972745;28;20050;-87
2022/08/17 01:30:15;;;;;;;0.00;0.00;;;;;;;;;;4969403;28;20051;-86
2022/08/17 01:33:03;;;;;;;0.00;0.00;;;19.10;99.90;;;;;;4971772;28;20515;-85
2022/08/17 01:35:30;;;;;;;0.00;0.00;;;19.00;99.90;;;;;;4970468;28;20513;-85
2022/08/17 01:37:58;;;;;;;0.00;0.00;;;19.00;99.90;;;;;;4972272;28;20101;-88
2022/08/17 01:40:32;;;;;;;0.00;0.00;;;19.00;99.90;;;;;;4970835;28;20050;-87
2022/08/17 01:43:01;;;;;;;0.00;0.00;;;19.10;99.90;;;;;;4970085;28;20102;-84
2022/08/17 01:45:32;;;;;;;0.00;0.00;;;18.80;99.90;;;;;;4969922;28;20062;-86
2022/08/17 01:47:59;;;;;;;0.00;0.00;;;18.80;99.90;;;;;;4973593;28;20047;-82
2022/08/17 01:50:33;;;;;;;0.00;0.00;;;18.80;99.90;;;;;;4971338;28;20064;-83
2022/08/17 01:53:05;;;;;;;0.00;0.00;;;18.90;99.90;;;;;;4964048;28;20089;-87
2022/08/17 01:55:37;;;;;;;0.00;0.00;;;19.00;99.90;;;;;;4971839;28;20061;-85
2022/08/17 01:58:08;;;;;;;0.00;0.00;;;19.00;99.90;;;;;;4968711;28;20030;-88
2022/08/17 02:00:37;;;;;;;0.00;0.00;;;19.00;99.90;;;;;;4970245;28;20380;-87
2022/08/17 02:03:24;;;;;;;0.00;0.00;;;19.00;99.90;;;;;;4969400;28;20447;-86
2022/08/17 02:05:52;;;;;;;0.00;0.00;;;19.00;99.90;;;;;;4970895;28;20058;-88
2022/08/17 02:08:21;;;;;;;0.00;0.00;;;19.00;99.90;;;;;;4970937;28;20447;-87
2022/08/17 02:11:08;;;;;;;0.00;0.00;;;18.90;99.90;;;;;;4972064;28;20050;-87
2022/08/17 02:13:37;;;;;;;0.00;0.00;;;18.70;99.90;;;;;;4972487;28;20042;-85
2022/08/17 02:16:04;;;;;;;0.00;0.00;;;18.60;99.90;;;;;;4968874;28;20062;-86
2022/08/17 02:18:31;;;;;;;0.00;0.00;;;18.50;99.90;;;;;;4970121;28;20050;-87
2022/08/17 02:20:59;;;;;;;0.00;0.00;;;;;;;;;;4972071;28;20046;-84
2022/08/17 02:23:31;;;;;;;0.00;0.00;;;18.70;99.90;;;;;;4972806;28;20047;-87
2022/08/17 02:25:59;;;;;;;0.00;0.00;;;18.80;99.90;;;;;;4974562;28;20059;-87
2022/08/17 02:28:27;;;;;;;0.00;0.00;;;18.80;99.90;;;;;;4972027;28;20522;-83
2022/08/17 02:30:54;;;;;;;0.00;0.00;;;18.70;99.90;;;;;;4968646;28;20058;-86
2022/08/17 02:33:29;;;;;;;0.00;0.00;;;18.80;99.90;;;;;;4974859;28;20038;-86
2022/08/17 02:36:11;;;;;;;0.00;0.00;;;18.80;99.90;;;;;;4970068;28;20074;-87
2022/08/17 02:38:40;;;;;;;0.00;0.00;;;18.70;99.90;;;;;;4973618;28;20495;-84
2022/08/17 02:41:07;;;;;;;0.00;0.00;;;18.70;99.90;;;;;;4970544;28;20047;-89
2022/08/17 02:43:34;;;;;;;0.00;0.00;;;18.80;99.90;;;;;;4972412;28;20039;-85
2022/08/17 02:46:01;;;;;;;0.00;0.00;;;18.60;99.90;;;;;;4965132;28;20050;-86
2022/08/17 02:48:28;;;;;;;0.00;0.00;;;18.60;99.90;;;;;;4972434;28;20061;-89
2022/08/17 02:50:57;;;;;;;0.00;0.00;;;18.50;99.90;;;;;;4969073;28;20047;-86
2022/08/17 02:53:24;;;;;;;0.00;0.00;;;18.50;99.90;;;;;;4971229;28;20341;-91
2022/08/17 02:55:53;;;;;;;0.00;0.00;;;18.50;99.90;;;;;;4969663;28;20070;-85
2022/08/17 02:58:19;;;;;;;0.00;0.00;;;18.40;99.90;;;;;;4973517;28;20054;-88
2022/08/17 03:01:02;;;;;;;0.00;0.00;;;18.50;99.90;;;;;;4969653;28;20094;-87
2022/08/17 03:03:29;;;;;;;0.00;0.00;;;18.40;99.90;;;;;;4978793;28;20035;-90
2022/08/17 03:05:56;;;;;;;0.00;0.00;;;18.40;99.90;;;;;;4977228;28;20849;-83
2022/08/17 03:08:24;;;;;;;0.00;0.00;;;18.40;99.90;;;;;;4984913;28;20054;-85
2022/08/17 03:10:52;;;;;;;0.00;0.00;;;18.40;99.90;;;;;;4964281;28;20051;-84
2022/08/17 03:13:19;;;;;;;0.00;0.00;;;18.30;99.90;;;;;;4967456;28;20118;-85
2022/08/17 03:15:47;;;;;;;0.00;0.00;;;18.30;99.90;;;;;;4966564;28;20051;-84
2022/08/17 03:18:17;;;;;;;0.00;0.00;;;18.20;99.90;;;;;;4965974;28;20587;-83
2022/08/17 03:20:50;;;;;;;0.00;0.00;;;18.20;99.90;;;;;;4968601;28;20071;-84
2022/08/17 03:23:17;;;;;;;0.00;0.00;;;18.10;99.90;;;;;;4968148;28;20383;-85
2022/08/17 03:25:50;;;;;;;0.00;0.00;;;18.10;99.90;;;;;;4968831;28;20054;-86
2022/08/17 03:28:21;;;;;;;0.00;0.00;;;18.00;99.90;;;;;;4971140;28;20051;-84
2022/08/17 03:30:49;;;;;;;0.00;0.00;;;18.00;99.90;;;;;;4963889;28;20044;-85
2022/08/17 03:33:17;;;;;;;0.00;0.00;;;18.00;99.90;;;;;;4968445;28;20105;-83
2022/08/17 03:35:44;;;;;;;0.00;0.00;;;18.00;99.90;;;;;;4967962;28;20502;-86
2022/08/17 03:38:12;;;;;;;0.00;0.00;;;18.00;99.90;;;;;;4983235;28;20039;-86
2022/08/17 03:40:43;;;;;;;0.00;0.00;;;18.00;99.90;;;;;;4963645;28;20053;-84
2022/08/17 03:43:29;;;;;;;0.00;0.00;;;18.00;99.90;;;;;;4964113;28;20039;-84
2022/08/17 03:57:17;;;;;;;0.00;0.00;;;17.70;99.90;;;;;;4970209;28;20039;-84
2022/08/17 03:59:46;;;;;;;0.00;0.00;;;18.80;99.90;;;;;;4969692;28;20101;-85
2022/08/17 04:02:17;;;;;;;0.00;0.00;;;17.70;99.90;;;;;;4966729;28;20047;-85
2022/08/17 04:04:44;;;;;;;0.00;0.00;;;17.60;99.90;;;;;;4967573;28;20089;-80
2022/08/17 04:07:11;;;;;;;0.00;0.00;;;17.60;99.90;;;;;;4972945;28;20081;-87
2022/08/17 04:09:38;;;;;;;0.00;0.00;;;17.50;99.90;;;;;;4970600;28;20106;-81
2022/08/17 04:12:05;;;;;;;0.00;0.00;;;17.60;99.90;;;;;;4970676;28;20076;-85
2022/08/17 04:14:35;;;;;;;0.00;0.00;;;17.60;99.90;;;;;;4972883;28;20113;-84
2022/08/17 04:17:20;;;;;;;0.00;0.00;;;17.60;99.90;;;;;;4969041;28;20475;-84
2022/08/17 04:19:47;;;;;;;0.00;0.00;;;17.60;99.90;;;;;;4971675;28;20050;-85
2022/08/17 04:22:14;;;;;;;0.00;0.00;;;17.60;99.90;;;;;;4971893;28;20518;-84
2022/08/17 04:25:06;;;;;;;0.00;0.00;;;17.60;99.90;;;;;;4987496;28;20043;-83
2022/08/17 04:27:33;;;;;;;0.00;0.00;;;17.60;99.90;;;;;;4970187;28;20051;-87
2022/08/17 04:29:59;;;;;;;0.00;0.00;;;17.60;99.90;;;;;;4986506;28;20082;-81
2022/08/17 04:32:28;;;;;;;0.00;0.00;;;17.60;99.90;;;;;;4973219;28;20038;-86
2022/08/17 04:35:19;;;;;;;0.00;0.00;;;17.60;99.90;;;;;;4970524;28;20407;-85
2022/08/17 04:37:46;;;;;;;0.00;0.00;;;;;;;;;;4972020;28;20043;-87
2022/08/17 04:43:03;;;;;;;0.00;0.00;;;17.70;99.90;;;;;;4971239;28;20031;-86
2022/08/17 04:45:30;;;;;;;0.00;0.00;;;17.70;99.90;;;;;;4965454;28;20045;-85
2022/08/17 04:48:00;;;;;;;0.00;0.00;;;17.70;99.90;;;;;;4981643;28;20495;-87
2022/08/17 04:50:26;;;;;;;0.00;0.00;;;17.80;99.90;;;;;;4964971;28;20411;-85
2022/08/17 04:52:53;;;;;;;0.00;0.00;;;17.80;99.90;;;;;;4985870;28;20423;-86
2022/08/17 04:55:21;;;;;;;0.00;0.00;;;17.80;99.90;;;;;;4968696;28;20051;-84
2022/08/17 04:57:47;;;;;;;0.00;0.00;;;17.80;99.90;;;;;;4973157;28;20102;-85
2022/08/17 05:00:14;;;;;;;0.00;0.00;;;17.90;99.90;;;;;;4973902;28;20073;-84
2022/08/17 05:02:45;;;;;;;0.00;0.00;;;18.00;99.90;;;;;;4971423;28;20070;-85
2022/08/17 05:05:19;;;;;;;0.00;0.00;;;18.10;99.90;;;;;;4972591;28;20162;-88
2022/08/17 05:07:46;;;;;;;0.00;0.00;;;18.10;99.90;;;;;;4973117;28;20058;-88
2022/08/17 05:10:13;;;;;;;0.00;0.00;;;18.20;99.90;;;;;;4974974;28;20451;-87
2022/08/17 05:12:40;;;;;;;0.00;0.00;;;18.30;99.90;;;;;;4974199;28;20046;-84
2022/08/17 05:15:10;;;;;;;0.00;0.00;;;18.40;99.90;;;;;;4971351;28;20057;-85
2022/08/17 05:17:37;;;;;;;0.00;0.00;;;18.40;99.90;;;;;;4970203;28;20049;-85
2022/08/17 05:22:35;;;;;;;0.00;0.00;;;18.60;99.90;;;;;;4952311;29;20062;-81
2022/08/17 05:25:03;;;;;;;0.00;0.00;;;18.60;99.90;;;;;;4955288;28;20114;-82
2022/08/17 05:27:31;;;;;;;0.00;0.00;;;18.70;99.90;;;;;;4952232;28;20130;-83
2022/08/17 05:30:01;;;;;;;0.00;0.00;;;18.80;99.90;;;;;;4948382;28;20106;-83
2022/08/17 05:32:28;;;;;;;0.00;0.00;;;18.90;99.90;;;;;;4951362;29;20554;-83
2022/08/17 05:35:06;;;;;;;0.00;0.00;;;19.00;99.90;;;;;;4944775;29;20044;-82
2022/08/17 05:37:34;;;;;;;0.00;0.00;;;19.10;99.90;;;;;;4956031;28;20527;-82
2022/08/17 05:40:02;;;;;;;0.00;0.00;;;19.20;99.90;;;;;;4954539;28;20070;-84
2022/08/17 05:42:29;;;;;;;0.00;0.00;;;19.20;99.90;;;;;;4952152;28;20522;-82
2022/08/17 05:44:56;;;;;;;0.00;0.00;;;19.30;99.90;;;;;;4944813;28;20051;-83
2022/08/17 05:47:25;;;;;;;0.00;0.00;;;19.40;99.90;;;;;;4943237;29;20063;-84
2022/08/17 05:49:52;;;;;;;0.00;0.00;;;;;;;;;;4949853;29;20039;-81
2022/08/17 05:52:29;;;;;;;0.00;0.00;;;19.50;99.90;;;;;;4969942;28;20040;-82
2022/08/17 05:55:07;;;;;;;0.00;0.00;;;19.60;99.90;;;;;;4954746;28;20449;-83
2022/08/17 05:57:43;;;;;;;0.00;0.00;;;19.60;99.90;;;;;;4960538;28;20043;-82
2022/08/17 06:00:24;;;;;;;0.00;0.00;;;19.80;99.90;;;;;;4950585;29;20077;-84
2022/08/17 06:03:17;;;;;;;0.00;0.00;;;19.80;99.90;;;;;;4948143;28;20136;-83
2022/08/17 06:05:54;;;;;;;0.00;0.00;;;19.70;99.90;;;;;;4960052;28;20062;-84
2022/08/17 06:08:31;;;;;;;0.00;0.00;;;19.70;99.90;;;;;;4946567;29;20051;-83
2022/08/17 06:11:07;;;;;;;0.00;0.00;;;19.80;99.90;;;;;;4952061;28;20050;-83
2022/08/17 06:14:12;;;;;;;0.00;0.00;;;19.90;99.90;;;;;;4952043;28;20047;-82
2022/08/17 06:16:42;;;;;;;0.00;0.00;;;20.00;99.90;;;;;;4947857;28;20051;-82
2022/08/17 06:19:14;;;;;;;0.00;0.00;;;20.30;99.90;;;;;;4956915;28;20047;-82
2022/08/17 06:21:43;;;;;;;0.00;0.00;;;20.10;99.90;;;;;;4945842;28;20051;-82
2022/08/17 06:24:23;;;;;;;0.00;0.00;;;20.20;99.90;;;;;;4951004;29;20051;-83
2022/08/17 06:26:52;;;;;;;;;;;20.30;99.90;;;;;;4955156;28;20093;-82
2022/08/17 06:29:34;;;;;;;0.00;0.00;;;20.50;99.90;;;;;;4947145;28;20354;-82
2022/08/17 06:32:01;;;;;;;0.00;0.00;;;20.50;99.90;;;;;;4953998;28;20058;-81
2022/08/17 06:34:28;;;;;;;0.00;0.00;;;20.50;99.90;;;;;;4954344;28;20032;-83
2022/08/17 06:37:04;;;;;;;0.00;0.00;;;20.60;99.90;;;;;;4952022;28;20432;-83
2022/08/17 06:39:43;;;;;;;0.00;0.00;;;20.70;99.90;;;;;;4945587;28;20472;-83
2022/08/17 06:42:24;;;;;;;0.00;0.00;;;20.60;99.90;;;;;;4951881;28;20059;-82
2022/08/17 06:45:16;;;;;;;0.00;0.00;;;20.70;99.90;;;;;;4949273;28;20471;-82
2022/08/17 06:47:48;;;;;;;0.00;0.00;;;20.80;99.90;;;;;;4953240;28;20047;-82
2022/08/17 06:50:19;;;;;;;0.00;0.00;;;21.00;99.90;;;;;;4941434;29;20054;-82
2022/08/17 06:52:52;;;;;;;0.00;0.00;;;21.10;99.90;;;;;;4949267;28;20046;-80
2022/08/17 06:55:25;;;;;;;0.00;0.00;;;21.20;99.90;;;;;;4948642;28;20051;-82
2022/08/17 06:57:57;;;;;;;0.00;0.00;;;21.30;99.90;;;;;;4942603;28;20036;-84
2022/08/17 07:00:28;;;;;;;0.00;0.00;;;21.40;99.90;;;;;;4943400;29;20051;-83
2022/08/17 07:03:01;;;;;;;0.00;0.00;;;21.40;99.90;;;;;;4940565;28;20397;-82
2022/08/17 07:05:32;;;;;;;0.00;0.00;;;21.50;99.90;;;;;;4951401;28;20086;-82
2022/08/17 07:08:03;;;;;;;0.00;0.00;;;21.60;99.90;;;;;;4948716;29;20103;-83
2022/08/17 07:10:44;;;;;;;0.00;0.00;;;21.70;99.90;;;;;;4947492;28;20063;-82
2022/08/17 07:13:36;;;;;;;0.00;0.00;;;21.70;99.90;;;;;;4947945;28;20460;-83
2022/08/17 07:16:25;;;;;;;0.00;0.00;;;21.80;99.90;;;;;;4962789;28;20047;-82
2022/08/17 07:18:53;;;;;;;0.00;0.00;;;21.90;99.90;;;;;;4945364;28;20094;-82
2022/08/17 07:21:42;;;;;;;0.00;0.00;;;22.00;99.90;;;;;;4951531;28;20071;-82
2022/08/17 07:24:24;;;;;;;0.00;0.00;;;21.90;99.90;;;;;;4949910;28;20311;-82
2022/08/17 07:27:05;;;;;;;0.00;0.00;;;22.00;99.90;;;;;;4950193;29;20047;-82
2022/08/17 07:29:38;;;;;;;0.00;0.00;;;22.00;99.90;;;;;;4946190;28;20043;-82
2022/08/17 07:32:07;;;;;;;0.00;0.00;;;21.80;99.90;;;;;;4939069;28;20047;-82
2022/08/17 07:34:59;;;;;;;0.00;0.00;;;22.00;99.90;;;;;;4964898;28;20047;-80
2022/08/17 07:37:26;;;;;;;0.00;0.00;;;22.00;99.90;;;;;;4964573;28;20054;-82
2022/08/17 07:39:54;;;;;;;0.00;0.00;;;22.20;99.90;;;;;;4946691;28;20054;-82
2022/08/17 07:42:41;;;;;;;0.00;0.00;;;22.20;99.90;;;;;;4952938;28;20641;-81
2022/08/17 07:48:17;;;;;;;0.00;0.00;;;22.30;99.90;;;;;;4948799;28;20058;-82
2022/08/17 07:48:19;;;;;;;0.00;0.00;;;22.50;99.90;;;;;;4950087;28;20055;-82
2022/08/17 07:50:46;;;;;;;0.00;0.00;;;22.80;99.90;;;;;;4948109;29;20035;-82
2022/08/17 07:53:18;;;;;;;0.00;0.00;;;22.90;99.90;;;;;;4952430;28;20031;-82
2022/08/17 07:55:45;;;;;;;0.00;0.00;;;23.20;99.90;;;;;;4952823;28;20046;-82
2022/08/17 07:58:16;;;;;;;0.00;0.00;;;23.30;99.90;;;;;;4952164;28;20114;-82
2022/08/17 08:00:46;;;;;;;0.00;0.00;;;23.30;99.40;;;;;;4953621;28;20051;-82
2022/08/17 08:03:19;;;;;;;0.00;0.00;;;23.40;99.90;;;;;;4949633;28;20051;-81
2022/08/17 08:05:54;;;;;;;0.00;0.00;;;23.60;99.80;;;;;;4966254;28;20059;-82
2022/08/17 08:08:26;;;;;;;0.00;0.00;;;23.70;98.90;;;;;;4951521;29;20062;-82
2022/08/17 08:11:01;;;;;;;0.00;0.00;;;23.80;99.20;;;;;;4947349;29;20078;-82
2022/08/17 08:13:29;;;;;;;0.00;0.00;;;23.90;98.40;;;;;;4952203;29;20040;-82
2022/08/17 08:16:23;;;;;;;0.00;0.00;;;24.00;98.60;;;;;;4950702;28;20483;-82
2022/08/17 08:18:53;;;;;;;0.00;0.00;;;24.20;98.50;;;;;;4947644;28;20043;-82
2022/08/17 08:21:41;;;;;;;0.00;0.00;;;24.30;98.10;;;;;;4948727;29;20412;-83
2022/08/17 08:24:23;;;;;;;0.00;0.00;;;24.50;97.70;;;;;;4950590;28;20036;-83
2022/08/17 08:27:06;;;;;;;0.00;0.00;;;24.60;97.60;;;;;;4952075;29;20043;-83
2022/08/17 08:29:43;;;;;;;0.00;0.00;;;24.80;97.20;;;;;;4951940;28;20051;-82
2022/08/17 08:32:18;;;;;;;0.00;0.00;;;24.90;97.00;;;;;;4950769;29;20047;-82
2022/08/17 08:34:57;;;;;;;0.00;0.00;;;25.00;96.90;;;;;;4958538;28;20047;-82
2022/08/17 08:37:38;;;;;;;0.00;0.00;;;25.10;96.60;;;;;;4945850;28;20047;-82
2022/08/17 08:40:21;;;;;;;0.00;0.00;;;25.30;96.50;;;;;;4953774;28;20047;-83
2022/08/17 08:42:55;;;;;;;0.00;0.00;;;25.40;96.70;;;;;;4950552;29;20047;-82
2022/08/17 08:45:27;;;;;;;0.00;0.00;;;25.30;95.90;;;;;;4947213;29;20059;-82
2022/08/17 08:48:10;;;;;;;0.00;0.00;;;25.50;96.30;;;;;;4948691;29;20122;-83
2022/08/17 08:51:05;;;;;;;0.00;0.00;;;25.60;96.00;;;;;;4942127;28;20060;-83
2022/08/17 08:53:42;;;;;;;0.00;0.00;;;25.80;95.80;;;;;;4942607;28;20043;-83
2022/08/17 08:56:15;;;;;;;0.00;0.00;;;25.90;95.70;;;;;;4951617;28;20062;-83
2022/08/17 08:58:49;;;;;;;0.00;0.00;;;25.90;95.30;;;;;;4948648;28;20047;-82
2022/08/17 09:01:25;;;;;;;0.00;0.00;;;26.00;95.80;;;;;;4948483;29;20058;-83
2022/08/17 09:04:03;;;;;;;0.00;0.00;;;26.20;95.70;;;;;;4948348;28;20031;-82
2022/08/17 09:07:03;;;;;;;0.00;0.00;;;26.30;94.90;;;;;;4944094;28;20052;-82
2022/08/17 09:09:41;;;;;;;0.00;0.00;;;26.50;95.00;;;;;;4934700;28;20467;-83
2022/08/17 09:12:15;;;;;;;0.00;0.00;;;26.70;95.00;;;;;;4943569;28;20109;-81
2022/08/17 09:14:53;;;;;;;0.00;0.00;;;26.90;95.00;;;;;;4944290;29;20077;-82
2022/08/17 09:17:24;;;;;;;0.00;0.00;;;27.10;94.00;;;;;;4952609;29;20043;-84
2022/08/17 09:19:58;;;;;;;0.00;0.00;;;27.10;93.60;;;;;;4946737;28;20419;-83
2022/08/17 09:22:31;;;;;;;0.00;0.00;;;27.10;93.90;;;;;;4945020;29;20059;-84
2022/08/17 09:25:05;;;;;;;0.00;0.00;;;26.90;93.90;;;;;;4943584;29;20047;-83
2022/08/17 09:27:40;;;;;;;0.00;0.00;;;27.00;93.50;;;;;;4945062;28;20058;-81
2022/08/17 09:30:09;;;;;;;0.00;0.00;;;27.30;93.20;;;;;;4955110;29;20055;-83
2022/08/17 09:32:39;;;;;;;0.00;0.00;;;27.50;92.80;;;;;;4953611;28;20051;-84
2022/08/17 09:35:15;;;;;;;0.00;0.00;;;27.70;92.70;;;;;;4950062;28;20043;-83
2022/08/17 09:37:52;;;;;;;0.00;0.00;;;27.80;92.90;;;;;;4946374;28;20046;-83
2022/08/17 09:40:24;;;;;;;0.00;0.00;;;28.00;92.60;;;;;;4964916;28;20094;-83
2022/08/17 09:42:58;;;;;;;0.00;0.00;;;27.90;92.20;;;;;;4949768;28;20038;-82
2022/08/17 09:45:33;;;;;;;0.00;0.00;;;28.00;92.00;;;;;;4945580;28;20044;-84
2022/08/17 09:48:06;;;;;;;0.00;0.00;;;28.00;91.80;;;;;;4953968;29;20118;-84
2022/08/17 09:50:39;;;;;;;0.00;0.00;;;27.90;91.20;;;;;;4950433;28;20056;-84
2022/08/17 09:53:26;;;;;;;0.00;0.00;;;28.00;91.30;;;;;;4951815;28;20043;-83
2022/08/17 09:56:11;;;;;;;0.00;0.00;;;27.90;90.70;;;;;;4953191;28;20043;-84
2022/08/17 09:58:55;;;;;;;0.00;0.00;;;27.80;90.70;;;;;;4945072;28;20070;-83
2022/08/17 10:01:28;;;;;;;0.00;0.00;;;27.90;91.00;;;;;;4942708;28;20051;-84
2022/08/17 10:04:15;;;;;;;0.00;0.00;;;28.00;91.00;;;;;;4945144;28;20040;-84
2022/08/17 10:06:54;;;;;;;0.00;0.00;;;27.80;90.90;;;;;;4961028;28;20047;-84
2022/08/17 10:09:32;;;;;;;0.00;0.00;;;27.90;90.80;;;;;;4948365;29;20154;-83
2022/08/17 10:12:18;;;;;;;0.00;0.00;;;28.00;90.50;;;;;;4953784;28;20040;-83
2022/08/17 10:15:00;;;;;;;0.00;0.00;;;28.10;89.80;;;;;;4963422;28;20047;-82
2022/08/17 10:17:41;;;;;;;0.00;0.00;;;28.30;89.60;;;;;;4953837;28;20499;-82
2022/08/17 10:20:14;;;;;;;0.00;0.00;;;28.30;90.00;;;;;;4944956;29;20054;-82
2022/08/17 10:28:42;;;;;;;;;;;28.90;87.70;;;;;;4911366;29;20456;-82
2022/08/17 10:31:16;;;;;;;0.00;0.00;;;29.00;85.80;;;;;;4911163;29;20557;-84
2022/08/17 10:34:29;;;;;;;0.00;0.00;;;29.10;85.80;;;;;;4930210;29;20539;-82
2022/08/17 10:37:27;;;;;;;0.00;0.00;;;29.50;82.10;;;;;;4945278;29;20046;-84
2022/08/17 10:40:14;;;;;;;0.00;0.00;;;29.60;81.70;;;;;;4962017;28;20055;-82
2022/08/17 10:42:47;;;;;;;0.00;0.00;;;29.50;81.60;;;;;;4942985;29;20051;-82
2022/08/17 10:45:18;;;;;;;0.00;0.00;;;29.70;81.10;;;;;;4953501;28;20027;-83
2022/08/17 10:47:58;;;;;;;0.00;0.00;;;29.60;82.30;;;;;;4945648;28;20055;-82
2022/08/17 10:50:59;;;;;;;0.00;0.00;;;29.60;80.90;;;;;;4946404;28;20064;-82
2022/08/17 10:54:03;;;;;;;0.00;0.00;;;29.70;82.80;;;;;;4948672;28;20094;-82
2022/08/17 10:56:43;;;;;;;0.00;0.00;;;29.80;81.90;;;;;;4952437;28;20109;-83
2022/08/17 10:59:52;;;;;;;0.00;0.00;;;29.90;81.60;;;;;;4952254;28;20122;-82
2022/08/17 11:02:26;;;;;;;;;;;30.10;80.70;;;;;;4948870;28;20055;-82
2022/08/17 11:05:06;;;;;;;0.00;0.00;;;30.10;80.20;;;;;;4967364;28;19922;-82
2022/08/17 11:07:47;;;;;;;0.00;0.00;;;30.20;81.10;;;;;;4942238;28;20099;-83
2022/08/17 11:10:41;;;;;;;0.00;0.00;;;30.10;79.50;;;;;;4943442;28;20051;-82
2022/08/17 11:13:22;;;;;;;0.00;0.00;;;30.30;80.30;;;;;;4948114;28;20055;-82
2022/08/17 11:16:01;;;;;;;0.00;0.00;;;30.40;79.50;;;;;;4953002;28;20500;-82
2022/08/17 11:18:57;;;;;;;0.00;0.00;;;30.50;79.60;;;;;;4950062;28;20050;-81
2022/08/17 11:35:06;;;;;;;0.00;0.00;;;30.80;79.10;;;;;;3813971;23;20054;-86
2022/08/17 11:37:45;;;;;;;0.00;0.00;;;30.80;79.30;;;;;;4966446;28;20051;-84
2022/08/17 11:40:24;;;;;;;0.00;0.00;;;30.70;78.60;;;;;;4966397;28;22373;-86
2022/08/17 11:43:12;;;;;;;0.00;0.00;;;30.70;79.40;;;;;;4970915;28;20043;-85
2022/08/17 11:46:01;;;;;;;0.00;0.00;;;30.70;79.30;;;;;;4967572;28;20070;-85
2022/08/17 11:52:06;;;;;;;0.00;0.00;;;31.90;79.00;;;;;;4969766;28;20058;-83
2022/08/17 11:54:44;;;;;;;0.00;0.00;;;30.90;77.70;;;;;;4968060;28;20458;-87
2022/08/17 11:57:48;;;;;;;0.00;0.00;;;30.70;79.30;;;;;;4967116;28;20413;-85
2022/08/17 12:00:57;;;;;;;0.00;0.00;;;30.60;78.50;;;;;;4967539;28;20051;-85
2022/08/17 12:03:42;;;;;;;0.00;0.00;;;30.60;77.80;;;;;;4962714;28;20065;-85
2022/08/17 12:06:29;;;;;;;0.00;0.00;;;30.70;77.60;;;;;;4969686;28;20105;-85
2022/08/17 12:09:06;;;;;;;0.00;0.00;;;31.60;78.80;;;;;;4969647;28;20050;-86
2022/08/17 12:11:41;;;;;;;0.00;0.00;;;30.70;77.40;;;;;;4962275;28;20058;-85
2022/08/17 12:14:31;;;;;;;0.00;0.00;;;30.60;78.50;;;;;;4968274;28;20227;-87
2022/08/17 12:17:21;;;;;;;0.00;0.00;;;30.50;77.60;;;;;;4968422;28;20058;-87
2022/08/17 12:20:13;;;;;;;0.00;0.00;;;30.50;77.80;;;;;;4961882;28;20050;-86
2022/08/17 12:22:52;;;;;;;0.00;0.00;;;30.40;78.10;;;;;;4967359;28;20047;-86
2022/08/17 12:25:30;;;;;;;0.00;0.00;;;30.40;79.50;;;;;;4964754;28;20042;-85
2022/08/17 12:27:57;;;;;;;0.00;0.00;;;30.40;80.50;;;;;;4969001;28;20849;-86
2022/08/17 12:30:34;;;;;;;0.00;0.00;;;30.70;77.50;;;;;;4967210;28;20105;-86
2022/08/17 12:33:01;;;;;;;0.00;0.00;;;30.60;78.20;;;;;;4968109;28;20562;-84
2022/08/17 12:35:33;;;;;;;0.00;0.00;;;30.90;78.80;;;;;;4977973;28;20407;-87
2022/08/17 12:38:01;;;;;;;0.00;0.00;;;30.90;76.20;;;;;;4966714;28;20571;-85
2022/08/17 12:40:31;;;;;;;0.00;0.00;;;31.40;76.80;;;;;;4969609;28;20062;-86
2022/08/17 12:43:00;;;;;;;0.00;0.00;;;31.60;76.30;;;;;;4968709;28;20102;-86
2022/08/17 12:45:29;;;;;;;0.00;0.00;;;31.60;76.40;;;;;;4961932;28;20038;-84
2022/08/17 12:48:02;;;;;;;0.00;0.00;;;31.60;74.70;;;;;;4969198;28;20046;-84
2022/08/17 12:50:30;;;;;;;0.00;0.00;;;31.70;75.60;;;;;;4966394;28;20050;-85
2022/08/17 12:52:58;;;;;;;0.00;0.00;;;;;;;;;;4972894;28;20468;-85
2022/08/17 12:55:35;;;;;;;0.00;0.00;;;31.50;74.10;;;;;;4966980;28;20038;-85
2022/08/17 12:58:02;;;;;;;0.00;0.00;;;31.60;76.90;;;;;;4970419;28;20050;-85
2022/08/17 13:00:33;;;;;;;0.00;0.00;;;31.40;77.00;;;;;;4964538;28;20050;-86
2022/08/17 13:03:04;;;;;;;0.00;0.00;;;31.80;75.60;;;;;;4964564;28;20054;-85
2022/08/17 13:05:34;;;;;;;0.00;0.00;;;31.40;77.60;;;;;;4964515;28;20046;-85
2022/08/17 13:08:12;;;;;;;0.00;0.00;;;31.20;76.50;;;;;;4961527;28;20054;-85
2022/08/17 13:10:42;;;;;;;0.00;0.00;;;31.10;76.20;;;;;;4980102;28;20047;-86
2022/08/17 13:13:19;;;;;;;0.00;0.00;;;31.00;76.30;;;;;;4967548;28;20043;-85
2022/08/17 13:15:52;;;;;;;0.00;0.00;;;30.70;76.70;;;;;;4965511;28;20043;-85
2022/08/17 13:18:37;;;;;;;0.00;0.00;;;30.40;77.80;;;;;;4970425;28;20047;-86
2022/08/17 13:21:06;;;;;;;0.00;0.00;;;30.50;78.20;;;;;;4963657;28;20043;-85
2022/08/17 13:23:33;;;;;;;0.00;0.00;;;30.40;78.30;;;;;;4958321;28;20043;-85
2022/08/17 13:26:05;;;;;;;0.00;0.00;;;30.50;81.30;;;;;;4971115;28;20128;-86
2022/08/17 13:28:34;;;;;;;0.00;0.00;;;30.20;80.10;;;;;;4967855;28;20341;-87
2022/08/17 13:31:31;;;;;;;0.00;0.00;;;29.90;79.60;;;;;;4958268;28;20094;-86
2022/08/17 13:34:12;;;;;;;0.00;0.00;;;29.90;80.80;;;;;;4961889;28;20050;-84
2022/08/17 13:36:41;;;;;;;0.00;0.00;;;29.80;80.10;;;;;;4967411;28;20498;-86
2022/08/17 13:39:17;;;;;;;0.00;0.00;;;29.80;81.00;;;;;;4966790;28;20057;-85
2022/08/17 13:41:47;;;;;;;0.00;0.00;;;29.80;79.30;;;;;;4958138;28;20050;-87
2022/08/17 13:44:35;;;;;;;0.00;0.00;;;29.80;78.20;;;;;;4967072;28;20055;-85
2022/08/17 13:47:05;;;;;;;0.00;0.00;;;29.60;78.80;;;;;;4961321;28;20482;-87
2022/08/17 13:49:36;;;;;;;0.00;0.00;;;29.70;76.40;;;;;;4976369;28;20042;-86
2022/08/17 13:52:35;;;;;;;0.00;0.00;;;29.60;78.80;;;;;;4968625;28;20155;-86
2022/08/17 13:55:13;;;;;;;0.00;0.00;;;29.50;80.80;;;;;;4961296;28;20042;-86
2022/08/17 13:57:44;;;;;;;0.00;0.00;;;29.60;78.20;;;;;;4983613;28;20049;-85
2022/08/17 14:00:18;;;;;;;0.00;0.00;;;29.30;78.20;;;;;;4978334;28;20058;-86
2022/08/17 14:02:45;;;;;;;0.00;0.00;;;29.10;78.80;;;;;;4962211;28;20049;-88
2022/08/17 14:05:12;;;;;;;0.00;0.00;;;29.10;78.50;;;;;;4968597;28;20039;-86
2022/08/17 14:07:39;;;;;;;0.00;0.00;;;29.10;80.00;;;;;;4964058;28;20084;-86
2022/08/17 14:10:11;;;;;;;0.00;0.00;;;29.10;78.90;;;;;;4968671;28;20061;-86